sensor_id;sensor_type;location;lat;lon;timestamp;P1;durP1;ratioP1;P2;durP2;ratioP2
76351;SDS011;65179;47.786;19.138;2023-03-23T00:01:11;21.85;;;11.63;;
76351;SDS011;65179;47.786;19.138;2023-03-23T00:03:38;23.67;;;11.70;;
76351;SDS011;65179;47.786;19.138;2023-03-23T00:06:05;22.27;;;11.30;;
76351;SDS011;65179;47.786;19.138;2023-03-23T00:08:32;24.87;;;11.82;;
76351;SDS011;65179;47.786;19.138;2023-03-23T00:11:02;23.55;;;12.32;;
76351;SDS011;65179;47.786;19.138;2023-03-23T00:13:29;22.65;;;12.20;;
76351;SDS011;65179;47.786;19.138;2023-03-23T00:15:55;20.50;;;11.35;;
76351;SDS011;65179;47.786;19.138;2023-03-23T00:18:22;24.90;;;12.07;;
76351;SDS011;65179;47.786;19.138;2023-03-23T00:20:55;25.37;;;12.03;;
76351;SDS011;65179;47.786;19.138;2023-03-23T00:23:22;24.05;;;11.80;;
76351;SDS011;65179;47.786;19.138;2023-03-23T00:25:53;22.60;;;11.85;;
76351;SDS011;65179;47.786;19.138;2023-03-23T00:28:23;24.73;;;12.57;;
76351;SDS011;65179;47.786;19.138;2023-03-23T00:30:57;26.87;;;11.45;;
76351;SDS011;65179;47.786;19.138;2023-03-23T00:33:24;26.97;;;11.50;;
76351;SDS011;65179;47.786;19.138;2023-03-23T00:35:53;22.75;;;10.60;;
76351;SDS011;65179;47.786;19.138;2023-03-23T00:38:20;23.12;;;11.10;;
76351;SDS011;65179;47.786;19.138;2023-03-23T00:40:49;19.90;;;10.88;;
76351;SDS011;65179;47.786;19.138;2023-03-23T00:43:16;19.48;;;10.75;;
76351;SDS011;65179;47.786;19.138;2023-03-23T00:45:43;19.63;;;10.67;;
76351;SDS011;65179;47.786;19.138;2023-03-23T00:48:14;21.70;;;10.02;;
76351;SDS011;65179;47.786;19.138;2023-03-23T00:50:40;22.85;;;11.35;;
76351;SDS011;65179;47.786;19.138;2023-03-23T00:53:05;17.90;;;10.07;;
76351;SDS011;65179;47.786;19.138;2023-03-23T00:55:31;22.33;;;10.48;;
76351;SDS011;65179;47.786;19.138;2023-03-23T00:57:58;20.20;;;9.70;;
76351;SDS011;65179;47.786;19.138;2023-03-23T01:00:24;20.53;;;10.80;;
76351;SDS011;65179;47.786;19.138;2023-03-23T01:02:49;19.27;;;9.97;;
76351;SDS011;65179;47.786;19.138;2023-03-23T01:05:16;18.62;;;10.20;;
76351;SDS011;65179;47.786;19.138;2023-03-23T01:07:42;18.92;;;10.50;;
76351;SDS011;65179;47.786;19.138;2023-03-23T01:10:09;21.00;;;10.50;;
76351;SDS011;65179;47.786;19.138;2023-03-23T01:12:38;18.80;;;10.23;;
76351;SDS011;65179;47.786;19.138;2023-03-23T01:15:04;20.23;;;9.90;;
76351;SDS011;65179;47.786;19.138;2023-03-23T01:17:31;20.42;;;9.98;;
76351;SDS011;65179;47.786;19.138;2023-03-23T01:19:56;20.57;;;9.87;;
76351;SDS011;65179;47.786;19.138;2023-03-23T01:22:22;19.12;;;10.13;;
76351;SDS011;65179;47.786;19.138;2023-03-23T01:24:47;17.67;;;9.43;;
76351;SDS011;65179;47.786;19.138;2023-03-23T01:27:13;20.20;;;9.68;;
76351;SDS011;65179;47.786;19.138;2023-03-23T01:29:39;20.10;;;10.00;;
76351;SDS011;65179;47.786;19.138;2023-03-23T01:32:05;20.98;;;11.00;;
76351;SDS011;65179;47.786;19.138;2023-03-23T01:34:30;21.10;;;10.03;;
76351;SDS011;65179;47.786;19.138;2023-03-23T01:36:56;20.67;;;9.93;;
76351;SDS011;65179;47.786;19.138;2023-03-23T01:39:22;21.80;;;10.20;;
76351;SDS011;65179;47.786;19.138;2023-03-23T01:41:47;21.80;;;9.75;;
76351;SDS011;65179;47.786;19.138;2023-03-23T01:46:41;18.58;;;9.65;;
76351;SDS011;65179;47.786;19.138;2023-03-23T01:49:09;20.70;;;9.57;;
76351;SDS011;65179;47.786;19.138;2023-03-23T01:51:48;17.70;;;9.00;;
76351;SDS011;65179;47.786;19.138;2023-03-23T01:54:17;19.90;;;9.25;;
76351;SDS011;65179;47.786;19.138;2023-03-23T01:56:55;18.08;;;9.45;;
76351;SDS011;65179;47.786;19.138;2023-03-23T01:59:24;19.62;;;9.23;;
76351;SDS011;65179;47.786;19.138;2023-03-23T02:01:52;20.30;;;9.27;;
76351;SDS011;65179;47.786;19.138;2023-03-23T02:04:18;17.87;;;9.10;;
76351;SDS011;65179;47.786;19.138;2023-03-23T02:06:46;21.00;;;9.52;;
76351;SDS011;65179;47.786;19.138;2023-03-23T02:09:12;19.58;;;8.70;;
76351;SDS011;65179;47.786;19.138;2023-03-23T02:11:44;19.92;;;9.05;;
76351;SDS011;65179;47.786;19.138;2023-03-23T02:14:11;15.88;;;8.65;;
76351;SDS011;65179;47.786;19.138;2023-03-23T02:16:44;17.98;;;8.77;;
76351;SDS011;65179;47.786;19.138;2023-03-23T02:24:51;17.40;;;9.35;;
76351;SDS011;65179;47.786;19.138;2023-03-23T02:35:33;17.55;;;9.05;;
76351;SDS011;65179;47.786;19.138;2023-03-23T02:38:14;17.67;;;9.65;;
76351;SDS011;65179;47.786;19.138;2023-03-23T02:40:43;22.42;;;10.50;;
76351;SDS011;65179;47.786;19.138;2023-03-23T02:43:15;17.02;;;9.88;;
76351;SDS011;65179;47.786;19.138;2023-03-23T02:45:45;20.02;;;9.27;;
76351;SDS011;65179;47.786;19.138;2023-03-23T02:48:12;20.30;;;11.30;;
76351;SDS011;65179;47.786;19.138;2023-03-23T02:50:42;20.45;;;10.30;;
76351;SDS011;65179;47.786;19.138;2023-03-23T02:53:11;24.83;;;10.55;;
76351;SDS011;65179;47.786;19.138;2023-03-23T02:55:41;16.98;;;9.52;;
76351;SDS011;65179;47.786;19.138;2023-03-23T02:58:08;20.15;;;9.65;;
76351;SDS011;65179;47.786;19.138;2023-03-23T03:00:35;18.48;;;10.05;;
76351;SDS011;65179;47.786;19.138;2023-03-23T03:03:01;17.52;;;9.18;;
76351;SDS011;65179;47.786;19.138;2023-03-23T03:08:15;19.20;;;9.65;;
76351;SDS011;65179;47.786;19.138;2023-03-23T03:11:16;18.87;;;9.32;;
76351;SDS011;65179;47.786;19.138;2023-03-23T03:16:27;18.98;;;8.85;;
76351;SDS011;65179;47.786;19.138;2023-03-23T03:19:07;17.60;;;9.48;;
76351;SDS011;65179;47.786;19.138;2023-03-23T03:21:46;20.35;;;9.70;;
76351;SDS011;65179;47.786;19.138;2023-03-23T03:24:14;17.27;;;8.85;;
76351;SDS011;65179;47.786;19.138;2023-03-23T03:26:44;16.95;;;9.05;;
76351;SDS011;65179;47.786;19.138;2023-03-23T03:29:12;17.58;;;9.07;;
76351;SDS011;65179;47.786;19.138;2023-03-23T03:31:42;17.15;;;9.82;;
76351;SDS011;65179;47.786;19.138;2023-03-23T03:34:13;18.75;;;10.02;;
76351;SDS011;65179;47.786;19.138;2023-03-23T03:36:46;18.65;;;9.52;;
76351;SDS011;65179;47.786;19.138;2023-03-23T03:39:13;19.50;;;9.32;;
76351;SDS011;65179;47.786;19.138;2023-03-23T03:41:41;18.35;;;8.80;;
76351;SDS011;65179;47.786;19.138;2023-03-23T03:44:06;19.53;;;9.63;;
76351;SDS011;65179;47.786;19.138;2023-03-23T03:46:33;17.77;;;9.23;;
76351;SDS011;65179;47.786;19.138;2023-03-23T03:49:00;16.65;;;9.25;;
76351;SDS011;65179;47.786;19.138;2023-03-23T03:51:27;20.23;;;10.15;;
76351;SDS011;65179;47.786;19.138;2023-03-23T03:53:54;20.37;;;9.05;;
76351;SDS011;65179;47.786;19.138;2023-03-23T03:56:20;17.35;;;8.50;;
76351;SDS011;65179;47.786;19.138;2023-03-23T03:58:47;19.23;;;9.35;;
76351;SDS011;65179;47.786;19.138;2023-03-23T04:01:13;17.58;;;8.52;;
76351;SDS011;65179;47.786;19.138;2023-03-23T04:03:41;20.25;;;10.23;;
76351;SDS011;65179;47.786;19.138;2023-03-23T04:06:06;21.27;;;9.93;;
76351;SDS011;65179;47.786;19.138;2023-03-23T04:08:33;20.00;;;10.02;;
76351;SDS011;65179;47.786;19.138;2023-03-23T04:11:00;18.23;;;9.63;;
76351;SDS011;65179;47.786;19.138;2023-03-23T04:13:26;18.62;;;9.80;;
76351;SDS011;65179;47.786;19.138;2023-03-23T04:15:52;23.23;;;9.70;;
76351;SDS011;65179;47.786;19.138;2023-03-23T04:18:18;17.50;;;8.83;;
76351;SDS011;65179;47.786;19.138;2023-03-23T04:20:44;19.45;;;10.38;;
76351;SDS011;65179;47.786;19.138;2023-03-23T04:23:14;16.20;;;9.35;;
76351;SDS011;65179;47.786;19.138;2023-03-23T04:25:45;18.50;;;9.27;;
76351;SDS011;65179;47.786;19.138;2023-03-23T04:28:12;20.15;;;9.30;;
76351;SDS011;65179;47.786;19.138;2023-03-23T04:30:38;18.40;;;9.30;;
76351;SDS011;65179;47.786;19.138;2023-03-23T04:33:03;16.80;;;9.45;;
76351;SDS011;65179;47.786;19.138;2023-03-23T04:35:29;18.90;;;9.60;;
76351;SDS011;65179;47.786;19.138;2023-03-23T04:37:55;16.52;;;9.20;;
76351;SDS011;65179;47.786;19.138;2023-03-23T04:40:21;15.53;;;9.07;;
76351;SDS011;65179;47.786;19.138;2023-03-23T04:42:48;22.17;;;9.30;;
76351;SDS011;65179;47.786;19.138;2023-03-23T04:45:19;20.25;;;9.43;;
76351;SDS011;65179;47.786;19.138;2023-03-23T04:47:46;17.45;;;9.20;;
76351;SDS011;65179;47.786;19.138;2023-03-23T04:50:22;18.50;;;9.45;;
76351;SDS011;65179;47.786;19.138;2023-03-23T04:52:52;18.37;;;9.30;;
76351;SDS011;65179;47.786;19.138;2023-03-23T04:55:21;20.45;;;9.45;;
76351;SDS011;65179;47.786;19.138;2023-03-23T04:57:47;19.75;;;10.38;;
76351;SDS011;65179;47.786;19.138;2023-03-23T05:00:13;21.87;;;10.43;;
76351;SDS011;65179;47.786;19.138;2023-03-23T05:02:42;25.95;;;11.45;;
76351;SDS011;65179;47.786;19.138;2023-03-23T05:05:13;28.20;;;12.68;;
76351;SDS011;65179;47.786;19.138;2023-03-23T05:07:39;30.02;;;12.93;;
76351;SDS011;65179;47.786;19.138;2023-03-23T05:10:06;29.30;;;12.37;;
76351;SDS011;65179;47.786;19.138;2023-03-23T05:12:33;26.95;;;13.32;;
76351;SDS011;65179;47.786;19.138;2023-03-23T05:14:59;28.67;;;12.98;;
76351;SDS011;65179;47.786;19.138;2023-03-23T05:17:25;25.33;;;12.87;;
76351;SDS011;65179;47.786;19.138;2023-03-23T05:19:52;24.73;;;12.07;;
76351;SDS011;65179;47.786;19.138;2023-03-23T05:22:18;32.10;;;13.60;;
76351;SDS011;65179;47.786;19.138;2023-03-23T05:24:46;26.35;;;11.82;;
76351;SDS011;65179;47.786;19.138;2023-03-23T05:27:12;30.37;;;12.23;;
76351;SDS011;65179;47.786;19.138;2023-03-23T05:29:39;27.73;;;12.60;;
76351;SDS011;65179;47.786;19.138;2023-03-23T05:32:06;20.27;;;11.50;;
76351;SDS011;65179;47.786;19.138;2023-03-23T05:34:35;28.17;;;12.25;;
76351;SDS011;65179;47.786;19.138;2023-03-23T05:37:01;27.08;;;13.05;;
76351;SDS011;65179;47.786;19.138;2023-03-23T05:39:28;26.10;;;12.15;;
76351;SDS011;65179;47.786;19.138;2023-03-23T05:41:55;27.83;;;11.90;;
76351;SDS011;65179;47.786;19.138;2023-03-23T05:44:21;22.73;;;11.18;;
76351;SDS011;65179;47.786;19.138;2023-03-23T05:46:46;24.63;;;11.60;;
76351;SDS011;65179;47.786;19.138;2023-03-23T05:49:13;22.48;;;10.88;;
76351;SDS011;65179;47.786;19.138;2023-03-23T05:51:41;23.17;;;11.48;;
76351;SDS011;65179;47.786;19.138;2023-03-23T05:54:14;23.02;;;11.38;;
76351;SDS011;65179;47.786;19.138;2023-03-23T05:56:41;18.98;;;10.18;;
76351;SDS011;65179;47.786;19.138;2023-03-23T05:59:07;18.40;;;8.83;;
76351;SDS011;65179;47.786;19.138;2023-03-23T06:01:33;18.58;;;8.57;;
76351;SDS011;65179;47.786;19.138;2023-03-23T06:03:59;19.80;;;7.97;;
76351;SDS011;65179;47.786;19.138;2023-03-23T06:06:25;15.93;;;8.13;;
76351;SDS011;65179;47.786;19.138;2023-03-23T06:08:51;14.77;;;7.57;;
76351;SDS011;65179;47.786;19.138;2023-03-23T06:11:17;15.10;;;7.32;;
76351;SDS011;65179;47.786;19.138;2023-03-23T06:13:43;23.83;;;7.90;;
76351;SDS011;65179;47.786;19.138;2023-03-23T06:16:09;22.40;;;8.63;;
76351;SDS011;65179;47.786;19.138;2023-03-23T06:18:37;17.65;;;8.98;;
76351;SDS011;65179;47.786;19.138;2023-03-23T06:21:05;19.25;;;9.15;;
76351;SDS011;65179;47.786;19.138;2023-03-23T06:23:34;17.75;;;9.00;;
76351;SDS011;65179;47.786;19.138;2023-03-23T06:26:01;16.43;;;9.47;;
76351;SDS011;65179;47.786;19.138;2023-03-23T06:28:30;18.20;;;9.05;;
76351;SDS011;65179;47.786;19.138;2023-03-23T06:30:58;18.05;;;9.60;;
76351;SDS011;65179;47.786;19.138;2023-03-23T06:33:30;17.40;;;9.63;;
76351;SDS011;65179;47.786;19.138;2023-03-23T06:35:55;19.80;;;10.43;;
76351;SDS011;65179;47.786;19.138;2023-03-23T06:38:22;18.55;;;9.60;;
76351;SDS011;65179;47.786;19.138;2023-03-23T06:40:51;17.95;;;9.15;;
76351;SDS011;65179;47.786;19.138;2023-03-23T06:43:19;20.20;;;8.60;;
76351;SDS011;65179;47.786;19.138;2023-03-23T06:45:45;16.83;;;9.00;;
76351;SDS011;65179;47.786;19.138;2023-03-23T06:48:10;16.50;;;9.15;;
76351;SDS011;65179;47.786;19.138;2023-03-23T06:50:36;21.33;;;10.67;;
76351;SDS011;65179;47.786;19.138;2023-03-23T06:53:01;16.63;;;8.63;;
76351;SDS011;65179;47.786;19.138;2023-03-23T06:55:27;21.00;;;9.60;;
76351;SDS011;65179;47.786;19.138;2023-03-23T06:57:52;19.05;;;8.93;;
76351;SDS011;65179;47.786;19.138;2023-03-23T07:00:18;18.67;;;9.47;;
76351;SDS011;65179;47.786;19.138;2023-03-23T07:02:45;23.27;;;8.80;;
76351;SDS011;65179;47.786;19.138;2023-03-23T07:05:14;16.00;;;8.45;;
76351;SDS011;65179;47.786;19.138;2023-03-23T07:07:40;17.83;;;8.65;;
76351;SDS011;65179;47.786;19.138;2023-03-23T07:10:08;14.80;;;6.95;;
76351;SDS011;65179;47.786;19.138;2023-03-23T07:12:35;13.48;;;7.37;;
76351;SDS011;65179;47.786;19.138;2023-03-23T07:15:02;12.57;;;6.78;;
76351;SDS011;65179;47.786;19.138;2023-03-23T07:17:28;11.85;;;6.47;;
76351;SDS011;65179;47.786;19.138;2023-03-23T07:19:55;13.37;;;6.40;;
76351;SDS011;65179;47.786;19.138;2023-03-23T07:22:24;11.10;;;6.57;;
76351;SDS011;65179;47.786;19.138;2023-03-23T07:24:49;14.20;;;6.90;;
76351;SDS011;65179;47.786;19.138;2023-03-23T07:27:14;14.03;;;7.50;;
76351;SDS011;65179;47.786;19.138;2023-03-23T07:29:40;17.10;;;7.45;;
76351;SDS011;65179;47.786;19.138;2023-03-23T07:32:06;13.23;;;7.10;;
76351;SDS011;65179;47.786;19.138;2023-03-23T07:34:35;13.45;;;7.57;;
76351;SDS011;65179;47.786;19.138;2023-03-23T07:37:02;18.02;;;9.45;;
76351;SDS011;65179;47.786;19.138;2023-03-23T07:39:28;17.23;;;8.93;;
76351;SDS011;65179;47.786;19.138;2023-03-23T07:41:53;16.53;;;8.20;;
76351;SDS011;65179;47.786;19.138;2023-03-23T07:44:19;16.05;;;8.50;;
76351;SDS011;65179;47.786;19.138;2023-03-23T07:46:45;15.93;;;8.80;;
76351;SDS011;65179;47.786;19.138;2023-03-23T07:49:11;15.77;;;7.37;;
76351;SDS011;65179;47.786;19.138;2023-03-23T07:51:37;15.43;;;7.53;;
76351;SDS011;65179;47.786;19.138;2023-03-23T07:54:03;18.73;;;8.07;;
76351;SDS011;65179;47.786;19.138;2023-03-23T07:56:30;14.23;;;8.02;;
76351;SDS011;65179;47.786;19.138;2023-03-23T07:58:56;15.95;;;9.05;;
76351;SDS011;65179;47.786;19.138;2023-03-23T08:01:22;14.27;;;7.80;;
76351;SDS011;65179;47.786;19.138;2023-03-23T08:03:48;15.27;;;8.13;;
76351;SDS011;65179;47.786;19.138;2023-03-23T08:06:15;15.67;;;8.27;;
76351;SDS011;65179;47.786;19.138;2023-03-23T08:08:40;17.20;;;8.60;;
76351;SDS011;65179;47.786;19.138;2023-03-23T08:11:06;14.37;;;7.93;;
76351;SDS011;65179;47.786;19.138;2023-03-23T08:13:32;17.62;;;8.27;;
76351;SDS011;65179;47.786;19.138;2023-03-23T08:16:01;18.37;;;9.60;;
76351;SDS011;65179;47.786;19.138;2023-03-23T08:18:28;16.15;;;9.10;;
76351;SDS011;65179;47.786;19.138;2023-03-23T08:20:55;17.60;;;9.02;;
76351;SDS011;65179;47.786;19.138;2023-03-23T08:23:20;16.23;;;8.70;;
76351;SDS011;65179;47.786;19.138;2023-03-23T08:25:46;18.37;;;8.80;;
76351;SDS011;65179;47.786;19.138;2023-03-23T08:28:13;18.45;;;9.25;;
76351;SDS011;65179;47.786;19.138;2023-03-23T08:30:39;19.60;;;9.53;;
76351;SDS011;65179;47.786;19.138;2023-03-23T08:33:05;19.40;;;9.15;;
76351;SDS011;65179;47.786;19.138;2023-03-23T08:35:32;15.32;;;8.57;;
76351;SDS011;65179;47.786;19.138;2023-03-23T08:37:58;17.60;;;9.47;;
76351;SDS011;65179;47.786;19.138;2023-03-23T08:40:24;19.42;;;9.45;;
76351;SDS011;65179;47.786;19.138;2023-03-23T08:42:50;16.48;;;8.38;;
76351;SDS011;65179;47.786;19.138;2023-03-23T08:45:17;14.27;;;8.07;;
76351;SDS011;65179;47.786;19.138;2023-03-23T08:47:45;15.07;;;7.75;;
76351;SDS011;65179;47.786;19.138;2023-03-23T08:50:15;17.75;;;8.48;;
76351;SDS011;65179;47.786;19.138;2023-03-23T08:52:42;15.77;;;7.97;;
76351;SDS011;65179;47.786;19.138;2023-03-23T08:55:08;12.68;;;7.82;;
76351;SDS011;65179;47.786;19.138;2023-03-23T08:57:35;24.43;;;8.10;;
76351;SDS011;65179;47.786;19.138;2023-03-23T09:00:07;18.23;;;7.62;;
76351;SDS011;65179;47.786;19.138;2023-03-23T09:02:40;13.52;;;7.20;;
76351;SDS011;65179;47.786;19.138;2023-03-23T09:05:08;13.85;;;7.62;;
76351;SDS011;65179;47.786;19.138;2023-03-23T09:07:36;13.57;;;7.40;;
76351;SDS011;65179;47.786;19.138;2023-03-23T09:10:03;17.70;;;7.63;;
76351;SDS011;65179;47.786;19.138;2023-03-23T09:12:29;12.82;;;7.40;;
76351;SDS011;65179;47.786;19.138;2023-03-23T09:14:55;16.70;;;7.72;;
76351;SDS011;65179;47.786;19.138;2023-03-23T09:17:20;14.77;;;6.60;;
76351;SDS011;65179;47.786;19.138;2023-03-23T09:19:46;15.70;;;6.70;;
76351;SDS011;65179;47.786;19.138;2023-03-23T09:22:11;14.68;;;5.70;;
76351;SDS011;65179;47.786;19.138;2023-03-23T09:24:36;13.17;;;6.53;;
76351;SDS011;65179;47.786;19.138;2023-03-23T09:27:02;13.10;;;6.77;;
76351;SDS011;65179;47.786;19.138;2023-03-23T09:29:28;12.70;;;5.78;;
76351;SDS011;65179;47.786;19.138;2023-03-23T09:31:54;11.97;;;6.00;;
76351;SDS011;65179;47.786;19.138;2023-03-23T09:34:21;12.10;;;6.93;;
76351;SDS011;65179;47.786;19.138;2023-03-23T09:36:47;16.35;;;7.10;;
76351;SDS011;65179;47.786;19.138;2023-03-23T09:39:13;11.65;;;6.25;;
76351;SDS011;65179;47.786;19.138;2023-03-23T09:41:45;12.07;;;6.70;;
76351;SDS011;65179;47.786;19.138;2023-03-23T09:47:01;13.93;;;6.50;;
76351;SDS011;65179;47.786;19.138;2023-03-23T09:49:38;15.77;;;6.67;;
76351;SDS011;65179;47.786;19.138;2023-03-23T09:52:17;11.30;;;6.00;;
76351;SDS011;65179;47.786;19.138;2023-03-23T09:54:48;15.68;;;6.57;;
76351;SDS011;65179;47.786;19.138;2023-03-23T09:57:21;13.05;;;6.72;;
76351;SDS011;65179;47.786;19.138;2023-03-23T10:00:19;13.93;;;5.95;;
76351;SDS011;65179;47.786;19.138;2023-03-23T10:02:49;11.83;;;6.07;;
76351;SDS011;65179;47.786;19.138;2023-03-23T10:05:37;11.77;;;6.30;;
76351;SDS011;65179;47.786;19.138;2023-03-23T10:08:13;12.35;;;5.87;;
76351;SDS011;65179;47.786;19.138;2023-03-23T10:16:40;10.37;;;5.47;;
76351;SDS011;65179;47.786;19.138;2023-03-23T10:19:26;12.43;;;5.72;;
76351;SDS011;65179;47.786;19.138;2023-03-23T10:22:10;11.55;;;5.85;;
76351;SDS011;65179;47.786;19.138;2023-03-23T10:27:40;13.57;;;5.97;;
76351;SDS011;65179;47.786;19.138;2023-03-23T10:35:25;10.55;;;5.07;;
76351;SDS011;65179;47.786;19.138;2023-03-23T10:38:00;11.80;;;5.60;;
76351;SDS011;65179;47.786;19.138;2023-03-23T10:40:30;11.02;;;5.30;;
76351;SDS011;65179;47.786;19.138;2023-03-23T10:42:58;9.60;;;4.27;;
76351;SDS011;65179;47.786;19.138;2023-03-23T10:45:25;11.15;;;4.43;;
76351;SDS011;65179;47.786;19.138;2023-03-23T10:50:39;7.05;;;4.00;;
76351;SDS011;65179;47.786;19.138;2023-03-23T10:53:55;10.93;;;5.03;;
76351;SDS011;65179;47.786;19.138;2023-03-23T10:56:00;8.05;;;4.07;;
76351;SDS011;65179;47.786;19.138;2023-03-23T10:58:30;13.38;;;5.72;;
76351;SDS011;65179;47.786;19.138;2023-03-23T11:00:58;15.38;;;4.82;;
76351;SDS011;65179;47.786;19.138;2023-03-23T11:03:28;12.90;;;4.82;;
76351;SDS011;65179;47.786;19.138;2023-03-23T11:06:01;11.07;;;5.03;;
76351;SDS011;65179;47.786;19.138;2023-03-23T11:08:33;13.48;;;4.82;;
76351;SDS011;65179;47.786;19.138;2023-03-23T11:11:21;13.70;;;5.35;;
76351;SDS011;65179;47.786;19.138;2023-03-23T11:13:57;12.82;;;5.03;;
76351;SDS011;65179;47.786;19.138;2023-03-23T11:16:31;12.63;;;4.82;;
76351;SDS011;65179;47.786;19.138;2023-03-23T11:18:59;12.50;;;4.77;;
76351;SDS011;65179;47.786;19.138;2023-03-23T11:21:26;12.50;;;5.18;;
76351;SDS011;65179;47.786;19.138;2023-03-23T11:23:54;10.30;;;5.07;;
76351;SDS011;65179;47.786;19.138;2023-03-23T11:26:27;11.55;;;5.03;;
76351;SDS011;65179;47.786;19.138;2023-03-23T11:31:31;12.23;;;4.80;;
76351;SDS011;65179;47.786;19.138;2023-03-23T11:34:00;12.55;;;4.30;;
76351;SDS011;65179;47.786;19.138;2023-03-23T11:36:38;10.93;;;4.30;;
76351;SDS011;65179;47.786;19.138;2023-03-23T11:39:26;10.98;;;4.60;;
76351;SDS011;65179;47.786;19.138;2023-03-23T11:42:00;9.00;;;4.30;;
76351;SDS011;65179;47.786;19.138;2023-03-23T11:44:40;10.00;;;4.83;;
76351;SDS011;65179;47.786;19.138;2023-03-23T11:49:52;10.50;;;4.35;;
76351;SDS011;65179;47.786;19.138;2023-03-23T11:52:43;8.43;;;4.70;;
76351;SDS011;65179;47.786;19.138;2023-03-23T11:55:32;12.07;;;5.50;;
76351;SDS011;65179;47.786;19.138;2023-03-23T11:58:06;11.20;;;4.87;;
76351;SDS011;65179;47.786;19.138;2023-03-23T12:00:36;9.60;;;4.93;;
76351;SDS011;65179;47.786;19.138;2023-03-23T12:32:43;10.95;;;4.97;;
76351;SDS011;65179;47.786;19.138;2023-03-23T12:41:11;11.18;;;5.10;;
76351;SDS011;65179;47.786;19.138;2023-03-23T12:46:28;8.80;;;4.45;;
76351;SDS011;65179;47.786;19.138;2023-03-23T12:48:59;7.00;;;4.62;;
76351;SDS011;65179;47.786;19.138;2023-03-23T12:56:52;11.05;;;4.30;;
76351;SDS011;65179;47.786;19.138;2023-03-23T12:59:41;10.15;;;4.15;;
76351;SDS011;65179;47.786;19.138;2023-03-23T13:02:39;8.00;;;3.45;;
76351;SDS011;65179;47.786;19.138;2023-03-23T13:05:24;8.83;;;3.13;;
76351;SDS011;65179;47.786;19.138;2023-03-23T13:36:33;7.50;;;3.10;;
76351;SDS011;65179;47.786;19.138;2023-03-23T13:40:13;7.53;;;2.87;;
76351;SDS011;65179;47.786;19.138;2023-03-23T13:42:27;5.75;;;2.62;;
76351;SDS011;65179;47.786;19.138;2023-03-23T13:47:43;6.53;;;2.85;;
76351;SDS011;65179;47.786;19.138;2023-03-23T13:50:25;5.93;;;2.63;;
76351;SDS011;65179;47.786;19.138;2023-03-23T13:52:53;8.13;;;3.15;;
76351;SDS011;65179;47.786;19.138;2023-03-23T14:00:33;6.53;;;2.50;;
76351;SDS011;65179;47.786;19.138;2023-03-23T14:14:05;8.50;;;2.78;;
76351;SDS011;65179;47.786;19.138;2023-03-23T14:16:39;6.28;;;2.70;;
76351;SDS011;65179;47.786;19.138;2023-03-23T14:21:55;8.20;;;2.40;;
76351;SDS011;65179;47.786;19.138;2023-03-23T14:24:32;7.12;;;2.60;;
76351;SDS011;65179;47.786;19.138;2023-03-23T14:29:37;7.00;;;2.22;;
76351;SDS011;65179;47.786;19.138;2023-03-23T14:32:05;5.13;;;2.50;;
76351;SDS011;65179;47.786;19.138;2023-03-23T14:34:32;7.57;;;2.80;;
76351;SDS011;65179;47.786;19.138;2023-03-23T14:37:01;6.50;;;2.50;;
76351;SDS011;65179;47.786;19.138;2023-03-23T14:41:56;6.00;;;2.53;;
76351;SDS011;65179;47.786;19.138;2023-03-23T14:44:55;8.13;;;2.40;;
76351;SDS011;65179;47.786;19.138;2023-03-23T14:47:25;6.95;;;2.58;;
76351;SDS011;65179;47.786;19.138;2023-03-23T14:49:56;6.55;;;2.72;;
76351;SDS011;65179;47.786;19.138;2023-03-23T14:52:28;6.87;;;2.15;;
76351;SDS011;65179;47.786;19.138;2023-03-23T14:55:09;6.37;;;2.22;;
76351;SDS011;65179;47.786;19.138;2023-03-23T14:57:40;6.50;;;2.70;;
76351;SDS011;65179;47.786;19.138;2023-03-23T15:00:11;6.53;;;2.28;;
76351;SDS011;65179;47.786;19.138;2023-03-23T15:02:41;5.30;;;2.35;;
76351;SDS011;65179;47.786;19.138;2023-03-23T15:05:53;6.05;;;2.50;;
76351;SDS011;65179;47.786;19.138;2023-03-23T15:08:06;4.95;;;2.17;;
76351;SDS011;65179;47.786;19.138;2023-03-23T15:10:36;6.23;;;2.47;;
76351;SDS011;65179;47.786;19.138;2023-03-23T15:13:01;7.03;;;2.70;;
76351;SDS011;65179;47.786;19.138;2023-03-23T15:15:28;6.30;;;2.50;;
76351;SDS011;65179;47.786;19.138;2023-03-23T15:17:56;6.03;;;2.42;;
76351;SDS011;65179;47.786;19.138;2023-03-23T15:22:51;6.20;;;2.43;;
76351;SDS011;65179;47.786;19.138;2023-03-23T15:27:44;6.00;;;2.40;;
76351;SDS011;65179;47.786;19.138;2023-03-23T15:32:46;6.37;;;2.40;;
76351;SDS011;65179;47.786;19.138;2023-03-23T15:35:13;6.47;;;2.37;;
76351;SDS011;65179;47.786;19.138;2023-03-23T15:37:46;8.38;;;2.58;;
76351;SDS011;65179;47.786;19.138;2023-03-23T15:40:14;8.53;;;2.70;;
76351;SDS011;65179;47.786;19.138;2023-03-23T15:42:41;7.85;;;2.97;;
76351;SDS011;65179;47.786;19.138;2023-03-23T15:52:38;8.75;;;2.62;;
76351;SDS011;65179;47.786;19.138;2023-03-23T15:55:16;12.00;;;3.47;;
76351;SDS011;65179;47.786;19.138;2023-03-23T15:57:49;6.57;;;3.30;;
76351;SDS011;65179;47.786;19.138;2023-03-23T16:00:15;6.83;;;3.00;;
76351;SDS011;65179;47.786;19.138;2023-03-23T16:02:43;5.97;;;3.28;;
76351;SDS011;65179;47.786;19.138;2023-03-23T16:05:11;5.30;;;2.78;;
76351;SDS011;65179;47.786;19.138;2023-03-23T16:07:37;6.50;;;2.50;;
76351;SDS011;65179;47.786;19.138;2023-03-23T16:10:06;5.87;;;2.70;;
76351;SDS011;65179;47.786;19.138;2023-03-23T16:12:41;5.70;;;2.80;;
76351;SDS011;65179;47.786;19.138;2023-03-23T16:15:06;7.37;;;2.87;;
76351;SDS011;65179;47.786;19.138;2023-03-23T16:17:33;7.12;;;2.90;;
76351;SDS011;65179;47.786;19.138;2023-03-23T16:19:58;7.65;;;3.03;;
76351;SDS011;65179;47.786;19.138;2023-03-23T16:22:24;8.20;;;3.07;;
76351;SDS011;65179;47.786;19.138;2023-03-23T16:24:49;9.63;;;3.40;;
76351;SDS011;65179;47.786;19.138;2023-03-23T16:27:15;6.60;;;2.80;;
76351;SDS011;65179;47.786;19.138;2023-03-23T16:29:41;6.22;;;2.70;;
76351;SDS011;65179;47.786;19.138;2023-03-23T16:32:06;8.50;;;3.00;;
76351;SDS011;65179;47.786;19.138;2023-03-23T16:34:32;9.30;;;3.40;;
76351;SDS011;65179;47.786;19.138;2023-03-23T16:36:59;8.43;;;3.03;;
76351;SDS011;65179;47.786;19.138;2023-03-23T16:39:25;9.27;;;4.70;;
76351;SDS011;65179;47.786;19.138;2023-03-23T16:41:51;15.37;;;4.23;;
76351;SDS011;65179;47.786;19.138;2023-03-23T16:44:17;10.15;;;3.90;;
76351;SDS011;65179;47.786;19.138;2023-03-23T16:46:43;7.27;;;3.77;;
76351;SDS011;65179;47.786;19.138;2023-03-23T16:49:08;10.60;;;4.57;;
76351;SDS011;65179;47.786;19.138;2023-03-23T16:51:34;12.60;;;6.17;;
76351;SDS011;65179;47.786;19.138;2023-03-23T16:54:00;12.90;;;5.22;;
76351;SDS011;65179;47.786;19.138;2023-03-23T16:56:25;14.47;;;5.47;;
76351;SDS011;65179;47.786;19.138;2023-03-23T16:58:51;9.20;;;3.80;;
76351;SDS011;65179;47.786;19.138;2023-03-23T17:01:16;20.27;;;5.33;;
76351;SDS011;65179;47.786;19.138;2023-03-23T17:03:41;11.35;;;4.05;;
76351;SDS011;65179;47.786;19.138;2023-03-23T17:06:07;16.37;;;5.10;;
76351;SDS011;65179;47.786;19.138;2023-03-23T17:08:33;17.08;;;4.75;;
76351;SDS011;65179;47.786;19.138;2023-03-23T17:11:06;15.03;;;8.07;;
76351;SDS011;65179;47.786;19.138;2023-03-23T17:13:31;14.98;;;9.73;;